Time;durP1;ratioP1;P1;durP2;ratioP2;P2;SDS_P1;SDS_P2;PMS_P1;PMS_P2;Temp;Humidity;BMP_temperature;BMP_pressure;BME280_temperature;BME280_humidity;BME280_pressure;Samples;Min_cycle;Max_cycle;Signal;HPM_P1;HPM_P2
2022/10/17 00:01:34;;;;;;;2.23;1.10;;;22.20;51.10;21.20;101360.00;;;;5066924;28;20103;-67
2022/10/17 00:04:00;;;;;;;1.63;0.80;;;22.10;51.10;21.20;101356.00;;;;5067316;28;20124;-67
2022/10/17 00:06:26;;;;;;;1.50;1.03;;;22.20;51.10;21.20;101368.00;;;;5068409;28;20106;-67
2022/10/17 00:08:52;;;;;;;1.37;0.87;;;22.10;51.10;21.20;101363.00;;;;5064789;28;20111;-67
2022/10/17 00:11:20;;;;;;;1.40;0.80;;;22.10;51.10;21.20;101369.00;;;;5067056;28;20112;-67
2022/10/17 00:13:47;;;;;;;1.15;0.98;;;22.10;51.10;21.20;101365.00;;;;5065493;28;20138;-67
2022/10/17 00:16:13;;;;;;;2.53;0.98;;;22.20;51.10;21.20;101356.00;;;;5064502;28;20021;-67
2022/10/17 00:18:39;;;;;;;2.88;1.13;;;22.10;51.10;21.20;101358.00;;;;5080531;28;20112;-67
2022/10/17 00:21:05;;;;;;;0.87;0.80;;;22.20;51.20;21.20;101345.00;;;;5065028;28;20032;-67
2022/10/17 00:23:32;;;;;;;1.77;0.90;;;22.10;51.10;21.20;101334.00;;;;5065098;28;20055;-67
2022/10/17 00:26:03;;;;;;;1.70;1.00;;;22.10;51.20;21.20;101334.00;;;;5033987;28;20029;-67
2022/10/17 00:28:29;;;;;;;2.33;1.00;;;22.10;51.10;21.20;101329.00;;;;5062526;28;20121;-67
2022/10/17 00:31:03;;;;;;;1.08;0.77;;;22.10;51.10;21.20;101331.00;;;;5064545;28;20488;-67
2022/10/17 00:33:29;;;;;;;1.25;0.90;;;22.20;51.20;21.20;101328.00;;;;5063780;28;20036;-67
2022/10/17 00:36:23;;;;;;;1.35;0.77;;;22.20;51.10;21.20;101339.00;;;;5062718;28;20451;-67
2022/10/17 00:38:55;;;;;;;1.77;1.02;;;22.10;51.20;21.20;101345.00;;;;5062443;28;20094;-67
2022/10/17 00:41:24;;;;;;;1.20;0.80;;;22.10;51.10;21.20;101356.00;;;;5065463;28;20061;-67
2022/10/17 00:44:05;;;;;;;1.00;0.70;;;22.20;51.20;21.20;101360.00;;;;5063325;28;20035;-67
2022/10/17 00:46:36;;;;;;;1.00;0.80;;;22.10;51.20;21.20;101363.00;;;;5064178;28;20028;-67
2022/10/17 00:49:10;;;;;;;3.53;1.05;;;22.10;51.10;21.20;101363.00;;;;5065520;28;20020;-67
2022/10/17 00:51:45;;;;;;;1.67;1.13;;;22.10;51.20;21.20;101362.00;;;;5060058;28;20047;-67
2022/10/17 00:54:12;;;;;;;1.70;0.80;;;22.10;51.20;21.20;101350.00;;;;5046978;28;20531;-67
2022/10/17 00:56:39;;;;;;;3.45;1.02;;;22.10;51.20;21.20;101344.00;;;;5060832;28;20024;-67
2022/10/17 00:59:06;;;;;;;1.15;1.05;;;22.10;51.20;21.20;101349.00;;;;5065257;28;20036;-67
2022/10/17 01:01:33;;;;;;;1.13;0.90;;;22.10;51.20;21.20;101343.00;;;;5067019;28;20025;-67
2022/10/17 01:03:58;;;;;;;1.42;0.80;;;22.10;51.20;21.20;101338.00;;;;5062805;28;20466;-67
2022/10/17 01:06:24;;;;;;;1.70;0.87;;;22.10;51.20;21.20;101327.00;;;;5047286;28;20054;-67
2022/10/17 01:08:50;;;;;;;2.73;0.97;;;22.10;51.20;21.20;101330.00;;;;5062759;28;20028;-67
2022/10/17 01:11:18;;;;;;;1.83;1.07;;;22.20;51.20;21.20;101328.00;;;;5066114;28;20522;-67
2022/10/17 01:14:29;;;;;;;1.60;0.88;;;22.10;51.20;21.20;101326.00;;;;5067198;28;20082;-67
2022/10/17 01:17:15;;;;;;;1.67;1.08;;;22.10;51.20;21.20;101314.00;;;;5068603;28;20016;-67
2022/10/17 01:19:56;;;;;;;2.60;1.23;;;22.10;51.20;21.20;101315.00;;;;5071674;28;20278;-67
2022/10/17 01:23:05;;;;;;;0.75;0.70;;;22.10;51.20;21.20;101316.00;;;;5066209;28;20098;-67
2022/10/17 01:25:56;;;;;;;;;;;22.10;51.20;21.10;101315.00;;;;5051984;28;20097;-67
2022/10/17 01:28:44;;;;;;;0.93;0.70;;;22.10;51.20;21.10;101306.00;;;;5066298;28;20321;-67
2022/10/17 01:31:13;;;;;;;1.13;0.93;;;22.10;51.10;21.10;101306.00;;;;5065882;28;20493;-67
2022/10/17 01:34:13;;;;;;;1.35;0.77;;;22.10;51.10;21.10;101302.00;;;;5067034;28;20036;-67
2022/10/17 01:36:55;;;;;;;2.42;0.93;;;22.10;51.20;21.10;101305.00;;;;5067840;28;20020;-67
2022/10/17 01:40:03;;;;;;;1.42;0.80;;;22.10;51.20;21.10;101306.00;;;;5050769;28;20120;-67
2022/10/17 01:42:58;;;;;;;1.10;1.00;;;22.10;51.30;21.10;101303.00;;;;5034942;28;20538;-67
2022/10/17 01:45:40;;;;;;;1.23;0.85;;;22.10;51.30;21.10;101299.00;;;;5050236;28;20045;-67
2022/10/17 01:48:16;;;;;;;1.58;0.75;;;22.10;51.30;21.10;101299.00;;;;5067597;28;20073;-67
2022/10/17 01:50:49;;;;;;;1.48;0.77;;;22.10;51.30;21.10;101291.00;;;;5068932;28;20039;-67
2022/10/17 01:53:32;;;;;;;1.13;0.63;;;22.10;51.30;21.10;101286.00;;;;5069760;28;20032;-67
2022/10/17 01:56:00;;;;;;;1.25;1.00;;;22.10;51.30;21.10;101282.00;;;;5069950;28;20027;-67
2022/10/17 01:58:41;;;;;;;0.88;0.63;;;22.10;51.30;21.10;101282.00;;;;5042608;28;20028;-67
2022/10/17 02:01:07;;;;;;;0.60;0.60;;;22.10;51.30;21.10;101291.00;;;;5046919;28;20095;-67
2022/10/17 02:03:33;;;;;;;0.82;0.82;;;22.00;51.20;21.10;101289.00;;;;5067191;28;20458;-67
2022/10/17 02:05:59;;;;;;;1.23;0.75;;;22.10;51.30;21.10;101284.00;;;;5070871;28;20164;-67
2022/10/17 02:08:46;;;;;;;2.45;0.80;;;22.10;51.30;21.10;101279.00;;;;5063274;28;20058;-67
2022/10/17 02:11:20;;;;;;;1.02;0.73;;;22.10;51.30;21.10;101283.00;;;;5065253;28;20044;-67
2022/10/17 02:14:28;;;;;;;1.23;0.98;;;22.10;51.30;21.10;101281.00;;;;5066287;28;20036;-67
2022/10/17 02:18:07;;;;;;;2.03;1.10;;;22.10;51.30;21.10;101282.00;;;;5070095;28;20031;-67
2022/10/17 02:21:03;;;;;;;0.75;0.60;;;22.10;51.30;21.10;101276.00;;;;5050586;28;20444;-67
2022/10/17 02:23:52;;;;;;;1.52;0.73;;;22.10;51.30;21.10;101269.00;;;;5066702;28;20103;-67
2022/10/17 02:26:40;;;;;;;0.95;0.80;;;22.00;51.30;21.10;101264.00;;;;5082833;28;20037;-67
2022/10/17 02:29:19;;;;;;;1.50;0.75;;;22.00;51.20;21.10;101272.00;;;;5050859;28;20020;-67
2022/10/17 02:31:50;;;;;;;2.45;0.90;;;22.00;51.20;21.10;101269.00;;;;5065901;28;20875;-67
2022/10/17 02:34:23;;;;;;;2.42;0.90;;;22.10;51.30;21.10;101259.00;;;;5067743;28;20444;-67
2022/10/17 02:36:52;;;;;;;2.15;0.90;;;22.00;51.30;21.10;101262.00;;;;5068441;28;20031;-67
2022/10/17 02:39:20;;;;;;;1.63;1.15;;;22.00;51.30;21.10;101264.00;;;;5068736;28;20032;-67
2022/10/17 02:41:46;;;;;;;1.08;0.77;;;22.00;51.30;21.10;101273.00;;;;5070473;28;20025;-67
2022/10/17 02:44:12;;;;;;;1.13;0.80;;;22.10;51.40;21.10;101268.00;;;;5067134;28;20530;-67
2022/10/17 02:46:37;;;;;;;1.03;0.77;;;22.10;51.40;21.10;101262.00;;;;5068824;28;20474;-67
2022/10/17 02:49:16;;;;;;;1.03;0.90;;;22.00;51.30;21.10;101265.00;;;;5068779;28;20386;-67
2022/10/17 02:52:06;;;;;;;2.42;0.98;;;22.10;51.40;21.10;101257.00;;;;5052564;28;20062;-67
2022/10/17 02:54:46;;;;;;;0.90;0.80;;;22.10;51.30;21.10;101257.00;;;;5063978;28;20039;-67
2022/10/17 02:57:28;;;;;;;0.80;0.75;;;22.10;51.30;21.10;101258.00;;;;5050666;28;20032;-67
2022/10/17 02:59:55;;;;;;;1.67;0.80;;;22.10;51.30;21.10;101262.00;;;;5066323;28;20028;-67
2022/10/17 03:02:21;;;;;;;0.77;0.77;;;22.10;51.30;21.10;101264.00;;;;5067507;28;20037;-67
2022/10/17 03:04:47;;;;;;;2.27;0.93;;;22.10;51.40;21.10;101262.00;;;;5083799;28;20219;-67
2022/10/17 03:07:12;;;;;;;1.93;0.83;;;22.10;51.40;21.10;101267.00;;;;5066071;28;20112;-67
2022/10/17 03:09:38;;;;;;;1.57;0.87;;;22.10;51.30;21.10;101266.00;;;;5067949;28;20032;-67
2022/10/17 03:12:04;;;;;;;1.60;1.13;;;22.10;51.40;21.10;101275.00;;;;5067199;28;20557;-67
2022/10/17 03:14:30;;;;;;;1.40;0.82;;;22.10;51.40;21.10;101273.00;;;;5067953;28;20024;-67
2022/10/17 03:16:56;;;;;;;1.00;0.90;;;22.10;51.40;21.10;101260.00;;;;5072175;28;20362;-67
2022/10/17 03:19:21;;;;;;;1.40;0.83;;;22.10;51.40;21.10;101269.00;;;;5068928;28;20073;-67
2022/10/17 03:21:47;;;;;;;1.90;1.00;;;22.00;51.30;21.10;101260.00;;;;5066969;28;20107;-67
2022/10/17 03:24:13;;;;;;;2.80;1.00;;;22.10;51.40;21.10;101260.00;;;;5069822;28;20450;-67
2022/10/17 03:26:39;;;;;;;1.93;0.93;;;22.10;51.40;21.10;101258.00;;;;5066705;28;20028;-67
2022/10/17 03:29:04;;;;;;;1.00;0.80;;;22.10;51.40;21.10;101265.00;;;;5067505;28;20131;-67
2022/10/17 03:31:30;;;;;;;0.80;0.80;;;22.10;51.40;21.10;101259.00;;;;5067453;28;20107;-67
2022/10/17 03:33:57;;;;;;;1.70;1.00;;;22.10;51.50;21.10;101258.00;;;;5068036;28;20111;-67
2022/10/17 03:36:22;;;;;;;1.55;1.00;;;22.10;51.40;21.10;101266.00;;;;5065953;28;20474;-67
2022/10/17 03:38:49;;;;;;;0.93;0.83;;;22.10;51.40;21.10;101264.00;;;;5065661;28;20157;-67
2022/10/17 03:41:14;;;;;;;0.93;0.75;;;22.10;51.40;21.20;101276.00;;;;5047106;28;20032;-67
2022/10/17 03:43:40;;;;;;;2.50;1.17;;;21.90;51.40;21.10;101272.00;;;;5067008;28;20036;-67
2022/10/17 03:46:06;;;;;;;1.57;0.80;;;22.10;51.50;21.10;101279.00;;;;5068043;28;20063;-67
2022/10/17 03:48:32;;;;;;;1.53;0.90;;;22.10;51.50;21.20;101267.00;;;;5067807;28;20505;-67
2022/10/17 03:51:03;;;;;;;1.33;1.13;;;22.10;51.50;21.20;101272.00;;;;5065081;28;20032;-67
2022/10/17 03:53:29;;;;;;;4.03;0.90;;;22.10;51.50;21.10;101270.00;;;;5082479;28;20474;-67
2022/10/17 03:55:55;;;;;;;1.20;1.10;;;22.10;51.50;21.20;101271.00;;;;5065572;28;20024;-67
2022/10/17 03:58:21;;;;;;;0.65;0.65;;;22.10;51.50;21.20;101275.00;;;;5069435;28;20068;-67
2022/10/17 04:00:47;;;;;;;1.67;1.10;;;22.10;51.50;21.10;101269.00;;;;5084254;28;20116;-67
2022/10/17 04:03:13;;;;;;;1.63;1.10;;;22.10;51.50;21.20;101275.00;;;;5067574;28;20344;-67
2022/10/17 04:05:39;;;;;;;0.75;0.75;;;22.10;51.50;21.10;101278.00;;;;5065195;28;20043;-67
2022/10/17 04:08:04;;;;;;;1.17;0.97;;;22.10;51.50;21.20;101285.00;;;;5066237;28;20386;-67
2022/10/17 04:10:30;;;;;;;2.20;1.03;;;22.10;51.50;21.20;101281.00;;;;5064813;28;20025;-67
2022/10/17 04:12:56;;;;;;;3.27;1.10;;;22.10;51.50;21.10;101281.00;;;;5067855;28;20024;-67
2022/10/17 04:15:21;;;;;;;2.30;1.20;;;22.10;51.50;21.20;101286.00;;;;5065789;28;20107;-67
2022/10/17 04:17:47;;;;;;;1.07;0.80;;;22.10;51.50;21.10;101280.00;;;;5064949;28;20108;-67
2022/10/17 04:20:13;;;;;;;1.10;0.70;;;22.10;51.50;21.20;101287.00;;;;5067790;28;20143;-67
2022/10/17 04:22:39;;;;;;;1.43;0.97;;;22.10;51.50;21.10;101281.00;;;;5061028;28;20024;-67
2022/10/17 04:25:05;;;;;;;1.20;1.10;;;22.10;51.50;21.10;101291.00;;;;5065411;28;20114;-67
2022/10/17 04:27:31;;;;;;;1.35;1.00;;;22.10;51.50;21.20;101286.00;;;;5065410;28;20044;-67
2022/10/17 04:29:56;;;;;;;1.53;1.00;;;22.10;51.60;21.20;101288.00;;;;5063774;28;20032;-67
2022/10/17 04:32:23;;;;;;;1.13;1.00;;;22.20;51.60;21.20;101286.00;;;;5065847;28;20060;-67
2022/10/17 04:34:49;;;;;;;1.70;1.15;;;22.10;51.60;21.20;101287.00;;;;5062978;28;20099;-67
2022/10/17 04:37:14;;;;;;;1.37;1.20;;;22.10;51.60;21.20;101284.00;;;;5064770;28;20033;-67
2022/10/17 04:39:40;;;;;;;1.67;1.20;;;22.10;51.60;21.20;101286.00;;;;5064352;28;21003;-67
2022/10/17 04:42:06;;;;;;;1.33;1.20;;;22.20;51.60;21.20;101281.00;;;;5060315;28;20553;-67
2022/10/17 04:44:34;;;;;;;1.73;0.82;;;22.10;51.60;21.20;101285.00;;;;5068029;28;20155;-67
2022/10/17 04:46:59;;;;;;;1.02;0.88;;;22.10;51.60;21.20;101284.00;;;;5069022;28;20390;-67
2022/10/17 04:49:25;;;;;;;1.23;1.13;;;22.10;51.60;21.20;101274.00;;;;5071053;28;20033;-67
2022/10/17 04:51:51;;;;;;;0.97;0.87;;;22.20;51.60;21.20;101278.00;;;;5071227;28;20112;-67
2022/10/17 04:54:17;;;;;;;1.67;0.93;;;22.10;51.60;21.20;101275.00;;;;5066943;28;20479;-67
2022/10/17 04:56:42;;;;;;;4.30;1.20;;;22.10;51.60;21.20;101277.00;;;;5069801;28;20020;-67
2022/10/17 04:59:08;;;;;;;3.87;1.00;;;22.10;51.60;21.20;101278.00;;;;5072134;28;20107;-67
2022/10/17 05:01:34;;;;;;;1.27;1.00;;;22.10;51.60;21.20;101281.00;;;;5071718;28;20027;-67
2022/10/17 05:04:00;;;;;;;1.70;1.10;;;22.10;51.70;21.20;101285.00;;;;5071061;28;20115;-67
2022/10/17 05:06:28;;;;;;;1.67;0.93;;;22.20;51.70;21.20;101271.00;;;;5068830;28;20444;-67
2022/10/17 05:08:54;;;;;;;1.15;1.05;;;22.10;51.70;21.20;101263.00;;;;5067570;28;20031;-67
2022/10/17 05:11:22;;;;;;;1.27;1.03;;;22.20;51.70;21.20;101259.00;;;;5067052;28;20031;-67
2022/10/17 05:13:53;;;;;;;1.58;0.88;;;22.10;51.70;21.20;101270.00;;;;5070993;28;20028;-67
2022/10/17 05:16:19;;;;;;;2.15;1.20;;;22.20;51.80;21.20;101267.00;;;;5065120;28;20029;-67
2022/10/17 05:18:50;;;;;;;0.87;0.87;;;22.20;51.80;21.20;101260.00;;;;5070537;28;20095;-67
2022/10/17 05:21:16;;;;;;;2.58;1.00;;;22.10;51.80;21.20;101265.00;;;;5059583;28;20762;-67
2022/10/17 05:23:42;;;;;;;1.27;1.10;;;22.10;51.80;21.20;101264.00;;;;5062584;28;20366;-67
2022/10/17 05:26:07;;;;;;;1.30;1.20;;;22.10;51.80;21.20;101268.00;;;;5063353;28;20158;-67
2022/10/17 05:28:33;;;;;;;1.40;1.30;;;22.20;51.80;21.20;101268.00;;;;5067391;28;20120;-67
2022/10/17 05:31:05;;;;;;;2.13;1.02;;;22.20;51.80;21.20;101272.00;;;;5069045;28;20481;-67
2022/10/17 05:33:31;;;;;;;1.67;1.20;;;22.10;51.80;21.20;101278.00;;;;5063314;28;20033;-67
2022/10/17 05:35:57;;;;;;;2.92;1.50;;;22.20;51.80;21.20;101277.00;;;;5064471;28;20025;-67
2022/10/17 05:38:23;;;;;;;1.17;1.08;;;22.20;51.80;21.20;101272.00;;;;5075731;28;20444;-67
2022/10/17 05:40:49;;;;;;;1.35;1.23;;;22.20;51.80;21.20;101278.00;;;;5066390;28;20028;-67
2022/10/17 05:43:14;;;;;;;1.47;1.37;;;22.20;51.80;21.20;101288.00;;;;5066850;28;20051;-67
2022/10/17 05:45:40;;;;;;;1.20;1.10;;;22.10;51.80;21.20;101284.00;;;;5062938;28;20121;-67
2022/10/17 05:48:07;;;;;;;4.73;1.37;;;22.10;51.80;21.20;101295.00;;;;5061715;28;20035;-67
2022/10/17 05:50:33;;;;;;;1.67;1.58;;;22.20;51.90;21.20;101299.00;;;;5065304;28;20074;-67
2022/10/17 05:52:59;;;;;;;1.55;1.20;;;22.20;51.90;21.20;101294.00;;;;5066993;28;20156;-67
2022/10/17 05:55:25;;;;;;;2.23;1.43;;;22.10;51.90;21.20;101302.00;;;;5067270;28;20519;-67
2022/10/17 05:57:52;;;;;;;1.97;1.50;;;22.20;52.00;21.20;101296.00;;;;5064506;28;20790;-67
2022/10/17 06:00:19;;;;;;;1.60;1.20;;;22.10;51.90;21.20;101297.00;;;;5065845;28;20036;-67
2022/10/17 06:02:45;;;;;;;1.80;1.33;;;22.20;52.00;21.20;101299.00;;;;5063798;28;20128;-67
2022/10/17 06:05:11;;;;;;;2.70;1.60;;;22.20;52.00;21.20;101307.00;;;;5064712;28;20444;-67
2022/10/17 06:07:37;;;;;;;2.28;1.35;;;22.20;52.00;21.20;101309.00;;;;5062036;28;20040;-67
2022/10/17 06:10:03;;;;;;;2.43;1.50;;;22.20;52.00;21.20;101314.00;;;;5067056;28;20081;-67
2022/10/17 06:12:29;;;;;;;1.45;1.30;;;22.20;52.10;21.20;101320.00;;;;5044922;28;20037;-67
2022/10/17 06:14:55;;;;;;;2.03;1.27;;;22.20;52.00;21.20;101318.00;;;;5068892;28;20035;-67
2022/10/17 06:17:21;;;;;;;3.07;1.50;;;22.10;52.00;21.20;101309.00;;;;5060843;28;20115;-67
2022/10/17 06:19:46;;;;;;;2.60;1.20;;;22.10;52.00;21.20;101309.00;;;;5083520;28;20028;-67
2022/10/17 06:22:12;;;;;;;2.60;1.17;;;22.10;52.00;21.20;101329.00;;;;5058417;28;20107;-67
2022/10/17 06:24:38;;;;;;;3.80;1.50;;;22.20;52.10;21.20;101331.00;;;;5064069;28;20040;-67
2022/10/17 06:27:04;;;;;;;2.03;1.53;;;22.10;52.00;21.20;101340.00;;;;5063999;28;20103;-67
2022/10/17 06:29:29;;;;;;;2.20;1.40;;;22.10;52.00;21.20;101336.00;;;;5081375;28;20436;-67
2022/10/17 06:31:55;;;;;;;1.87;1.30;;;22.10;52.00;21.20;101330.00;;;;5068009;28;20115;-67
2022/10/17 06:34:21;;;;;;;2.30;1.60;;;22.20;52.00;21.20;101333.00;;;;5079045;28;20033;-67
2022/10/17 06:36:47;;;;;;;1.50;1.40;;;22.20;52.00;21.20;101332.00;;;;5068455;28;20463;-67
2022/10/17 06:39:13;;;;;;;2.50;1.35;;;22.20;52.10;21.20;101347.00;;;;5066774;28;20298;-67
2022/10/17 06:41:40;;;;;;;1.58;1.48;;;22.10;52.00;21.20;101359.00;;;;5071299;28;20044;-67
2022/10/17 06:44:09;;;;;;;1.90;1.70;;;22.10;52.00;21.20;101356.00;;;;5063354;28;20107;-67
2022/10/17 06:46:36;;;;;;;2.72;1.42;;;22.20;52.10;21.20;101360.00;;;;5072325;28;20099;-67
2022/10/17 06:49:03;;;;;;;2.03;1.40;;;22.20;52.10;21.20;101360.00;;;;5065442;28;20115;-67
2022/10/17 06:51:30;;;;;;;1.70;1.50;;;22.10;52.10;21.20;101370.00;;;;5087316;28;20056;-67
2022/10/17 06:53:57;;;;;;;1.15;1.10;;;22.20;52.10;21.20;101376.00;;;;5066766;28;20505;-67
2022/10/17 06:56:23;;;;;;;1.27;1.15;;;22.20;52.10;21.20;101386.00;;;;5069044;28;20025;-67
2022/10/17 06:58:50;;;;;;;1.47;1.37;;;22.20;52.10;21.20;101393.00;;;;5064378;28;20051;-67
2022/10/17 07:01:15;;;;;;;1.30;1.20;;;22.20;52.10;21.20;101387.00;;;;5069999;28;20048;-67
2022/10/17 07:03:42;;;;;;;1.50;1.13;;;22.20;52.10;21.20;101390.00;;;;5064524;28;20056;-67
2022/10/17 07:06:10;;;;;;;;;;;22.20;52.10;21.20;101390.00;;;;5067348;28;20103;-67
2022/10/17 07:08:36;;;;;;;2.10;1.27;;;22.20;52.10;21.20;101386.00;;;;5065442;28;20285;-67
2022/10/17 07:11:12;;;;;;;3.58;1.60;;;22.20;52.00;21.20;101382.00;;;;5065356;28;20478;-67
2022/10/17 07:13:38;;;;;;;1.42;1.33;;;22.20;52.00;21.20;101380.00;;;;5069980;28;20056;-67
2022/10/17 07:16:04;;;;;;;1.60;1.50;;;22.20;52.00;21.20;101384.00;;;;5082601;28;20024;-67
2022/10/17 07:18:30;;;;;;;2.07;1.80;;;22.20;52.10;21.20;101375.00;;;;5063912;28;20032;-67
2022/10/17 07:20:56;;;;;;;5.13;1.38;;;22.20;52.10;21.20;101378.00;;;;5068759;28;20461;-67
2022/10/17 07:23:22;;;;;;;1.70;1.50;;;22.20;52.10;21.20;101382.00;;;;5068313;28;20032;-67
2022/10/17 07:25:47;;;;;;;2.92;1.50;;;22.20;52.10;21.20;101384.00;;;;5061257;28;20087;-67
2022/10/17 07:28:14;;;;;;;2.13;1.50;;;22.20;52.10;21.20;101384.00;;;;5065444;28;20389;-67
2022/10/17 07:30:40;;;;;;;1.45;1.35;;;22.20;52.20;21.20;101384.00;;;;5068309;28;20044;-67
2022/10/17 07:33:05;;;;;;;2.00;1.30;;;22.20;52.20;21.20;101380.00;;;;5063316;28;20055;-67
2022/10/17 07:35:31;;;;;;;1.30;1.20;;;22.20;52.90;21.20;101388.00;;;;5063448;28;20031;-67
2022/10/17 07:37:57;;;;;;;1.50;1.20;;;22.20;52.20;21.20;101382.00;;;;5058372;28;20112;-67
2022/10/17 07:40:22;;;;;;;2.33;1.63;;;22.20;52.20;21.20;101384.00;;;;5058905;28;20111;-67
2022/10/17 07:42:48;;;;;;;2.57;1.33;;;22.20;52.20;21.20;101397.00;;;;5064882;28;20131;-67
2022/10/17 07:45:14;;;;;;;2.70;1.50;;;22.20;52.20;21.20;101403.00;;;;5070850;28;20494;-67
2022/10/17 07:47:40;;;;;;;2.03;1.60;;;22.20;52.20;21.20;101399.00;;;;5064951;28;20033;-67
2022/10/17 07:50:06;;;;;;;3.55;1.40;;;22.20;52.90;21.20;101412.00;;;;5060119;28;20075;-67
2022/10/17 07:52:32;;;;;;;2.47;1.85;;;22.20;52.20;21.20;101407.00;;;;5082688;28;20109;-67
2022/10/17 07:54:58;;;;;;;1.27;1.17;;;22.20;52.20;21.20;101410.00;;;;5063399;28;20049;-67
2022/10/17 07:57:24;;;;;;;2.03;1.80;;;22.20;52.20;21.20;101409.00;;;;5063355;28;20494;-67
2022/10/17 07:59:50;;;;;;;1.60;1.50;;;22.20;52.20;21.20;101415.00;;;;5063126;28;20082;-67
2022/10/17 08:02:24;;;;;;;1.92;1.50;;;22.20;52.30;21.20;101413.00;;;;5075193;28;20469;-67
2022/10/17 08:04:50;;;;;;;1.48;1.38;;;22.20;52.30;21.20;101410.00;;;;5063931;28;20389;-67
2022/10/17 08:07:16;;;;;;;;;;;22.20;52.30;21.20;101416.00;;;;5056237;28;20056;-67
2022/10/17 08:09:43;;;;;;;1.50;1.40;;;22.20;52.20;21.20;101405.00;;;;5080135;28;19919;-67
2022/10/17 08:12:09;;;;;;;1.88;1.70;;;22.30;52.30;21.20;101401.00;;;;5062803;28;20039;-67
2022/10/17 08:14:34;;;;;;;1.50;1.40;;;22.20;52.20;21.20;101399.00;;;;5062975;28;20024;-67
2022/10/17 08:17:00;;;;;;;2.53;1.77;;;22.20;52.20;21.20;101398.00;;;;5066337;28;20025;-67
2022/10/17 08:19:26;;;;;;;1.60;1.50;;;22.20;52.30;21.20;101396.00;;;;5060938;28;20147;-67
2022/10/17 08:21:53;;;;;;;2.33;1.50;;;22.20;52.30;21.20;101395.00;;;;5058402;28;20410;-67
2022/10/17 08:24:19;;;;;;;1.42;1.33;;;22.20;52.40;21.20;101402.00;;;;5063595;28;20041;-67
2022/10/17 08:26:45;;;;;;;2.05;1.80;;;22.20;52.40;21.20;101406.00;;;;5074177;28;20036;-67
2022/10/17 08:29:14;;;;;;;2.63;1.47;;;22.20;52.30;21.20;101406.00;;;;5065114;28;20032;-67
2022/10/17 08:31:40;;;;;;;2.75;2.17;;;22.30;52.50;21.20;101400.00;;;;5058610;28;20052;-67
2022/10/17 08:34:05;;;;;;;3.00;1.63;;;22.20;52.40;21.20;101405.00;;;;5059077;28;20544;-67
2022/10/17 08:36:31;;;;;;;2.40;1.43;;;22.20;52.40;21.20;101402.00;;;;5061738;28;20108;-67
2022/10/17 08:38:57;;;;;;;2.27;1.70;;;22.20;52.40;21.20;101398.00;;;;5066855;28;20149;-67
2022/10/17 08:42:04;;;;;;;2.57;1.90;;;22.20;52.40;21.20;101397.00;;;;5056126;28;20082;-67
2022/10/17 08:44:41;;;;;;;2.25;1.55;;;22.20;52.40;21.20;101396.00;;;;5067198;28;20040;-67
2022/10/17 08:47:12;;;;;;;2.00;1.65;;;22.20;52.40;21.20;101400.00;;;;5041423;28;20024;-67
2022/10/17 08:49:56;;;;;;;2.90;1.88;;;22.20;52.40;21.20;101402.00;;;;5062381;28;20037;-67
2022/10/17 08:52:43;;;;;;;2.90;1.80;;;22.20;52.50;21.20;101403.00;;;;5063925;28;20029;-67
2022/10/17 08:55:15;;;;;;;;;;;22.20;52.50;21.20;101397.00;;;;5050451;28;20074;-67
2022/10/17 08:57:41;;;;;;;2.38;1.58;;;22.20;52.40;21.20;101411.00;;;;5063862;28;19912;-67
2022/10/17 09:00:16;;;;;;;1.95;1.75;;;22.30;52.40;21.20;101414.00;;;;5052428;28;20469;-67
2022/10/17 09:03:02;;;;;;;1.63;1.48;;;22.20;52.50;21.20;101417.00;;;;5051706;28;20041;-67
2022/10/17 09:05:52;;;;;;;2.33;1.58;;;22.20;52.50;21.20;101425.00;;;;5060046;28;20182;-67
2022/10/17 09:08:50;;;;;;;1.98;1.77;;;22.30;52.60;21.20;101425.00;;;;5048280;28;20028;-67
2022/10/17 09:11:53;;;;;;;2.55;1.65;;;22.20;52.50;21.20;101430.00;;;;5059259;28;20021;-67
2022/10/17 09:14:58;;;;;;;1.70;1.60;;;22.20;52.60;21.20;101430.00;;;;5061596;28;20033;-67
2022/10/17 09:17:50;;;;;;;2.25;1.52;;;22.20;52.60;21.20;101428.00;;;;5056265;28;20043;-67
2022/10/17 09:20:30;;;;;;;4.00;1.60;;;22.20;52.70;21.20;101435.00;;;;5064832;28;20070;-67
2022/10/17 09:23:09;;;;;;;4.07;1.90;;;22.20;52.70;21.20;101437.00;;;;5058584;28;20035;-67
2022/10/17 09:25:53;;;;;;;2.03;1.90;;;22.20;52.70;21.20;101437.00;;;;5078696;28;20017;-67
2022/10/17 09:28:31;;;;;;;2.08;1.83;;;22.20;52.70;21.20;101430.00;;;;5063944;28;20021;-67
2022/10/17 09:31:10;;;;;;;4.07;2.08;;;22.20;52.80;21.20;101432.00;;;;5069401;28;20034;-67
2022/10/17 09:33:41;;;;;;;3.15;1.73;;;22.20;52.80;21.20;101439.00;;;;5063982;28;20119;-67
2022/10/17 09:36:26;;;;;;;2.05;1.77;;;22.30;52.90;21.20;101432.00;;;;5069465;28;20516;-67
2022/10/17 09:39:23;;;;;;;4.65;1.65;;;22.20;52.90;21.20;101431.00;;;;5064632;28;20047;-67
2022/10/17 09:41:54;;;;;;;2.20;1.60;;;22.20;52.80;21.20;101447.00;;;;5045798;28;20033;-67
2022/10/17 09:44:50;;;;;;;3.85;2.10;;;22.20;52.80;21.20;101467.00;;;;5082475;28;20101;-67
2022/10/17 09:47:38;;;;;;;2.65;1.90;;;22.20;52.80;21.20;101480.00;;;;5064068;28;20376;-67
2022/10/17 09:50:25;;;;;;;2.42;2.00;;;22.20;52.80;21.20;101474.00;;;;5067153;28;20031;-67
2022/10/17 09:52:51;;;;;;;2.13;1.83;;;22.30;52.90;21.20;101475.00;;;;5050258;28;20120;-67
2022/10/17 09:55:20;;;;;;;2.28;1.83;;;22.30;52.90;21.20;101483.00;;;;5066716;28;20025;-67
2022/10/17 09:57:57;;;;;;;2.45;1.90;;;22.30;53.10;21.20;101493.00;;;;5063119;28;20028;-67
2022/10/17 10:00:32;;;;;;;1.98;1.50;;;22.20;53.00;21.20;101494.00;;;;5072636;28;20111;-67
2022/10/17 10:03:24;;;;;;;2.10;1.90;;;22.30;53.10;21.20;101499.00;;;;5061183;28;20047;-67
2022/10/17 10:06:16;;;;;;;2.92;1.92;;;22.30;53.10;21.20;101497.00;;;;5066380;28;20051;-67
2022/10/17 10:08:49;;;;;;;2.15;1.65;;;22.30;53.10;21.20;101501.00;;;;5061500;28;20033;-67
2022/10/17 10:11:14;;;;;;;3.78;1.92;;;22.30;53.10;21.20;101503.00;;;;5062027;28;20352;-67
2022/10/17 10:13:40;;;;;;;3.22;1.95;;;22.30;53.60;21.30;101502.00;;;;5064154;28;20468;-67
2022/10/17 10:16:16;;;;;;;4.23;2.00;;;22.30;53.30;21.30;101503.00;;;;5068085;28;20401;-67
2022/10/17 10:18:42;;;;;;;3.17;2.03;;;22.30;53.30;21.30;101517.00;;;;5065872;28;20104;-67
2022/10/17 10:21:20;;;;;;;2.53;2.00;;;22.30;53.20;21.30;101507.00;;;;5079596;28;20029;-67
2022/10/17 10:24:02;;;;;;;2.60;1.73;;;22.30;53.30;21.30;101514.00;;;;5065471;28;20380;-67
2022/10/17 10:26:40;;;;;;;3.35;2.00;;;22.30;53.30;21.30;101520.00;;;;5060252;28;20039;-67
2022/10/17 10:29:29;;;;;;;3.65;2.20;;;22.30;53.30;21.30;101516.00;;;;5064763;28;20036;-67
2022/10/17 10:32:07;;;;;;;5.20;2.55;;;22.30;53.20;21.30;101522.00;;;;5065288;28;20028;-67
2022/10/17 10:34:34;;;;;;;3.20;2.20;;;22.30;53.30;21.30;101523.00;;;;5049824;28;20040;-67
2022/10/17 10:37:04;;;;;;;2.78;2.13;;;22.30;53.30;21.30;101535.00;;;;5062218;28;20020;-67
2022/10/17 10:40:05;;;;;;;2.33;1.88;;;22.30;53.30;21.30;101525.00;;;;5065813;28;20398;-67
2022/10/17 10:42:38;;;;;;;3.58;2.30;;;22.30;53.40;21.30;101534.00;;;;5035578;28;20048;-67
2022/10/17 10:45:20;;;;;;;3.55;2.00;;;22.40;53.60;21.30;101543.00;;;;5064203;28;20024;-67
2022/10/17 10:47:59;;;;;;;3.33;1.80;;;22.30;54.20;21.30;101543.00;;;;5073499;28;20082;-67
2022/10/17 10:50:37;;;;;;;2.78;1.58;;;22.30;53.70;21.30;101562.00;;;;5047546;28;20040;-67
2022/10/17 10:53:29;;;;;;;2.90;1.98;;;22.40;53.70;21.30;101568.00;;;;5063228;28;20087;-67
2022/10/17 10:56:37;;;;;;;2.42;2.20;;;22.40;53.70;21.30;101590.00;;;;5089457;28;20024;-67
2022/10/17 10:59:11;;;;;;;3.53;1.98;;;22.40;54.70;21.30;101597.00;;;;5035975;28;20123;-67
2022/10/17 11:02:36;;;;;;;2.38;2.03;;;22.40;54.60;21.30;101612.00;;;;5065871;28;20108;-67
2022/10/17 11:05:32;;;;;;;6.18;2.58;;;22.40;54.70;21.20;101613.00;;;;5030196;28;20461;-67
2022/10/17 11:08:25;;;;;;;4.05;2.38;;;22.30;55.00;21.20;101595.00;;;;5064429;28;20046;-67
2022/10/17 11:11:02;;;;;;;3.95;2.50;;;22.30;54.90;21.20;101597.00;;;;5069312;28;20036;-67